Terminal Aerodrome Forecast
Issued by NWS

Home | Current Version | Previous Version | Text Only | Print | Product List | Glossary On
Versions: 1 2 3 4 5 6 7 8 9 10 11 12 13 14
000
FTUS41 KBTV 282300
TAFMPV
TAF
KMPV 282331Z 2900/2924 32006KT P6SM SCT040 OVC060
     FM290600 VRB03KT P6SM SCT060
     FM290800 VRB03KT 6SM BR SCT020
     FM291300 VRB03KT P6SM FEW035=

USA.gov is the U.S. government's official web portal to all federal, state and local government web resources and services.